createdAt,value
2022-11-29T00:00:54.714Z,12.90
2022-11-29T00:04:12.237Z,12.95
2022-11-29T00:07:35.679Z,12.98
2022-11-29T00:10:46.969Z,12.63
2022-11-29T00:13:50.695Z,13.85
2022-11-29T00:17:04.694Z,12.65
2022-11-29T00:20:12.307Z,13.50
2022-11-29T00:23:25.218Z,13.70
2022-11-29T00:26:32.549Z,13.53
2022-11-29T00:29:46.208Z,13.50
2022-11-29T00:33:03.974Z,14.23
2022-11-29T00:36:27.153Z,12.80
2022-11-29T00:39:49.020Z,12.18
2022-11-29T00:43:10.999Z,12.33
2022-11-29T00:46:31.889Z,12.95
2022-11-29T00:49:55.054Z,12.43
2022-11-29T00:53:16.892Z,12.23
2022-11-29T00:56:33.212Z,12.73
2022-11-29T00:59:53.085Z,12.97
2022-11-29T01:03:23.090Z,12.15
2022-11-29T01:06:45.029Z,12.30
2022-11-29T01:10:08.027Z,11.93
2022-11-29T01:13:32.100Z,11.77
2022-11-29T01:16:49.146Z,11.67
2022-11-29T01:20:16.243Z,11.90
2022-11-29T01:23:30.081Z,11.32
2022-11-29T01:26:45.976Z,11.93
2022-11-29T01:30:16.066Z,11.60
2022-11-29T01:33:36.943Z,11.67
2022-11-29T01:37:00.022Z,11.18
2022-11-29T01:40:24.075Z,10.80
2022-11-29T01:43:40.163Z,10.63
2022-11-29T01:47:01.005Z,11.30
2022-11-29T01:50:24.849Z,11.23
2022-11-29T01:53:47.961Z,11.05
2022-11-29T01:57:11.133Z,11.27
2022-11-29T02:00:30.894Z,10.90
2022-11-29T02:03:54.871Z,10.27
2022-11-29T02:07:05.065Z,11.07
2022-11-29T02:10:13.549Z,11.98
2022-11-29T02:13:41.883Z,11.43
2022-11-29T02:17:00.825Z,10.20
2022-11-29T02:20:40.156Z,10.05
2022-11-29T02:24:10.652Z,9.23
2022-11-29T02:27:48.289Z,10.23
2022-11-29T02:31:20.783Z,9.90
2022-11-29T02:34:40.242Z,10.80
2022-11-29T02:38:33.888Z,11.30
2022-11-29T02:42:16.624Z,10.53
2022-11-29T02:45:39.754Z,10.52
2022-11-29T02:49:12.115Z,10.43
2022-11-29T02:52:54.385Z,10.52
2022-11-29T02:56:13.400Z,9.85
2022-11-29T02:59:24.037Z,10.10
2022-11-29T03:02:47.385Z,10.18
2022-11-29T03:06:03.759Z,10.50
2022-11-29T03:09:29.356Z,10.77
2022-11-29T03:12:44.266Z,9.77
2022-11-29T03:16:05.782Z,10.47
2022-11-29T03:19:45.606Z,11.10
2022-11-29T03:23:16.280Z,10.82
2022-11-29T03:26:45.618Z,10.38
2022-11-29T03:30:10.442Z,10.32
2022-11-29T03:33:45.883Z,12.43
2022-11-29T03:37:31.314Z,11.27
2022-11-29T03:40:59.755Z,10.57
2022-11-29T03:44:22.804Z,10.48
2022-11-29T03:47:59.751Z,10.80
2022-11-29T03:51:16.268Z,11.73
2022-11-29T03:54:47.250Z,10.23
2022-11-29T03:58:12.904Z,10.48
2022-11-29T04:01:21.975Z,10.98
2022-11-29T04:05:00.049Z,10.55
2022-11-29T04:08:43.914Z,11.13
2022-11-29T04:12:27.436Z,12.13
2022-11-29T04:16:13.679Z,11.98
2022-11-29T04:19:54.809Z,11.95
2022-11-29T04:23:47.616Z,10.82
2022-11-29T04:27:21.802Z,11.23
2022-11-29T04:30:56.329Z,11.73
2022-11-29T04:34:38.453Z,12.85
2022-11-29T04:38:00.826Z,12.60
2022-11-29T04:41:34.737Z,12.40
2022-11-29T04:44:56.649Z,12.60
2022-11-29T04:48:45.292Z,13.95
2022-11-29T04:52:05.915Z,13.70
2022-11-29T04:55:34.055Z,13.25
2022-11-29T04:59:31.442Z,14.25
2022-11-29T05:03:26.596Z,13.77
2022-11-29T05:06:41.025Z,14.10
2022-11-29T05:10:03.918Z,12.60
2022-11-29T05:13:23.162Z,13.10
2022-11-29T05:16:49.150Z,11.70
2022-11-29T05:20:10.534Z,11.40
2022-11-29T05:23:51.320Z,11.10
2022-11-29T05:27:32.461Z,11.50
2022-11-29T05:31:40.715Z,11.50
2022-11-29T05:34:58.650Z,11.57
2022-11-29T05:38:35.301Z,10.90
2022-11-29T05:41:59.389Z,9.60
2022-11-29T05:45:27.474Z,11.02
2022-11-29T05:48:45.447Z,9.57
2022-11-29T05:52:15.784Z,10.38
2022-11-29T05:55:40.472Z,10.87
2022-11-29T05:58:51.677Z,11.20
2022-11-29T06:02:35.916Z,12.75
2022-11-29T06:06:01.195Z,14.60
2022-11-29T06:09:31.133Z,13.85
2022-11-29T06:12:56.866Z,14.27
2022-11-29T06:16:50.128Z,13.18
2022-11-29T06:20:14.333Z,13.60
2022-11-29T06:23:41.715Z,14.15
2022-11-29T06:26:58.831Z,14.75
2022-11-29T06:30:19.011Z,14.23
2022-11-29T06:33:52.947Z,15.07
2022-11-29T06:37:21.398Z,16.48
2022-11-29T06:40:25.423Z,14.75
2022-11-29T06:43:45.421Z,15.10
2022-11-29T06:47:07.648Z,13.77
2022-11-29T06:51:02.571Z,19.05
2022-11-29T06:54:11.691Z,13.30
2022-11-29T06:58:13.228Z,13.65
2022-11-29T07:02:08.603Z,12.52
2022-11-29T07:06:07.206Z,12.67
2022-11-29T07:15:53.958Z,11.00
2022-11-29T07:24:04.636Z,11.43
2022-11-29T07:27:28.402Z,11.70
2022-11-29T07:30:53.823Z,12.50
2022-11-29T07:34:09.834Z,12.75
2022-11-29T07:37:46.163Z,12.20
2022-11-29T07:41:47.999Z,12.77
2022-11-29T07:49:33.634Z,14.05
2022-11-29T07:53:25.772Z,14.52
2022-11-29T07:57:17.597Z,15.50
2022-11-29T08:00:28.156Z,12.95
2022-11-29T08:10:47.097Z,13.20
2022-11-29T08:13:58.355Z,13.48
2022-11-29T08:17:56.775Z,13.70
2022-11-29T08:21:07.710Z,13.18
2022-11-29T08:24:16.873Z,14.30
2022-11-29T08:27:25.285Z,12.85
2022-11-29T08:40:54.325Z,15.68
2022-11-29T08:44:11.021Z,17.17
2022-11-29T08:47:44.838Z,13.93
2022-11-29T09:05:53.506Z,15.23
2022-11-29T09:09:29.799Z,15.57
2022-11-29T09:12:59.903Z,16.13
2022-11-29T09:16:26.668Z,15.07
2022-11-29T09:19:42.861Z,16.27
2022-11-29T09:23:02.880Z,16.10
2022-11-29T09:35:34.119Z,14.95
2022-11-29T09:38:39.469Z,15.90
2022-11-29T09:42:29.352Z,15.33
2022-11-29T09:45:58.862Z,17.02
2022-11-29T09:49:56.946Z,15.57
2022-11-29T10:03:19.789Z,13.57
2022-11-29T10:06:50.213Z,14.73
2022-11-29T10:10:46.572Z,14.55
2022-11-29T10:14:01.634Z,16.25
2022-11-29T10:18:18.010Z,15.27
2022-11-29T10:21:38.041Z,16.37
2022-11-29T10:24:58.462Z,15.15
2022-11-29T10:28:33.589Z,17.02
2022-11-29T10:43:38.670Z,14.50
2022-11-29T10:47:11.103Z,15.38
2022-11-29T10:50:45.682Z,15.27
2022-11-29T11:00:07.596Z,15.93
2022-11-29T11:04:24.093Z,14.97
2022-11-29T11:08:35.773Z,14.10
2022-11-29T11:12:54.812Z,14.48
2022-11-29T11:16:18.702Z,14.98
2022-11-29T11:19:38.634Z,14.93
2022-11-29T11:23:50.569Z,14.17
2022-11-29T11:27:37.487Z,14.43
2022-11-29T11:31:09.781Z,14.25
2022-11-29T11:35:17.042Z,14.15
2022-11-29T11:38:26.368Z,14.52
2022-11-29T11:42:17.877Z,14.20
2022-11-29T11:50:50.328Z,14.65
2022-11-29T11:54:16.766Z,16.48
2022-11-29T12:02:51.743Z,15.97
2022-11-29T12:06:03.962Z,15.40
2022-11-29T12:09:11.546Z,14.95
2022-11-29T12:12:39.685Z,17.30
2022-11-29T12:16:12.355Z,17.08
2022-11-29T12:25:07.883Z,15.52
2022-11-29T12:29:06.470Z,16.85
2022-11-29T12:33:07.645Z,16.08
2022-11-29T12:36:52.194Z,18.13
2022-11-29T12:40:47.719Z,16.30
2022-11-29T12:44:56.425Z,17.42
2022-11-29T12:48:19.422Z,16.17
2022-11-29T12:51:55.597Z,15.90
2022-11-29T12:55:54.174Z,18.70
2022-11-29T12:59:51.684Z,16.20
2022-11-29T13:03:15.870Z,16.55
2022-11-29T13:06:53.979Z,16.00
2022-11-29T13:10:33.101Z,16.70
2022-11-29T13:13:52.867Z,16.77
2022-11-29T13:21:57.911Z,16.25
2022-11-29T13:25:37.796Z,16.20
2022-11-29T13:28:42.908Z,16.02
2022-11-29T13:31:49.277Z,15.77
2022-11-29T13:35:11.947Z,16.47
2022-11-29T13:38:49.261Z,15.80
2022-11-29T13:42:33.809Z,16.60
2022-11-29T13:45:58.682Z,16.73
2022-11-29T13:49:31.490Z,16.20
2022-11-29T13:52:48.781Z,16.23
2022-11-29T13:56:03.153Z,16.73
2022-11-29T14:00:13.679Z,17.63
2022-11-29T14:03:29.256Z,16.40
2022-11-29T14:06:41.787Z,16.30
2022-11-29T14:10:10.268Z,16.90
2022-11-29T14:13:30.951Z,17.08
2022-11-29T14:16:53.468Z,17.08
2022-11-29T14:20:25.081Z,16.23
2022-11-29T14:23:36.053Z,16.90
2022-11-29T14:26:55.017Z,17.93
2022-11-29T14:30:52.996Z,17.85
2022-11-29T14:34:34.011Z,19.60
2022-11-29T14:38:30.783Z,18.15
2022-11-29T14:41:52.680Z,17.73
2022-11-29T14:45:16.884Z,20.10
2022-11-29T14:48:38.990Z,18.27
2022-11-29T14:52:28.688Z,19.00
2022-11-29T14:55:39.284Z,17.58
2022-11-29T14:58:45.547Z,17.65
2022-11-29T15:02:00.237Z,17.83
2022-11-29T15:05:18.929Z,18.42
2022-11-29T15:08:52.061Z,19.52
2022-11-29T15:12:04.461Z,18.38
2022-11-29T15:15:36.610Z,19.50
2022-11-29T15:18:59.451Z,19.47
2022-11-29T15:22:18.431Z,19.98
2022-11-29T15:25:24.737Z,20.77
2022-11-29T15:28:32.460Z,20.38
2022-11-29T15:31:50.761Z,20.58
2022-11-29T15:35:07.649Z,20.07
2022-11-29T15:38:35.760Z,21.48
2022-11-29T15:41:57.692Z,19.95
2022-11-29T15:45:32.024Z,20.15
2022-11-29T15:48:46.678Z,20.23
2022-11-29T15:51:57.195Z,22.23
2022-11-29T15:55:26.679Z,20.13
2022-11-29T15:58:44.734Z,19.17
2022-11-29T16:02:09.746Z,17.45
2022-11-29T16:05:34.727Z,18.63
2022-11-29T16:08:57.680Z,18.97
2022-11-29T16:12:19.768Z,20.80
2022-11-29T16:15:41.682Z,19.33
2022-11-29T16:18:57.750Z,19.80
2022-11-29T16:22:17.679Z,20.38
2022-11-29T16:25:38.802Z,19.00
2022-11-29T16:29:03.563Z,20.50
2022-11-29T16:32:50.375Z,19.42
2022-11-29T16:36:11.892Z,20.42
2022-11-29T16:39:24.520Z,20.90
2022-11-29T16:42:33.759Z,20.37
2022-11-29T16:45:49.743Z,20.13
2022-11-29T16:49:42.540Z,22.58
2022-11-29T16:53:38.927Z,20.30
2022-11-29T16:57:02.642Z,20.17
2022-11-29T17:00:27.269Z,28.47
2022-11-29T17:03:43.542Z,25.15
2022-11-29T17:07:10.611Z,21.30
2022-11-29T17:10:35.291Z,20.20
2022-11-29T17:13:52.612Z,21.58
2022-11-29T17:17:11.430Z,22.50
2022-11-29T17:20:31.683Z,20.77
2022-11-29T17:23:47.494Z,23.10
2022-11-29T17:27:15.487Z,22.02
2022-11-29T17:30:32.331Z,21.20
2022-11-29T17:33:55.417Z,20.77
2022-11-29T17:37:29.456Z,20.73
2022-11-29T17:40:49.563Z,22.05
2022-11-29T17:44:09.525Z,21.10
2022-11-29T17:47:31.454Z,21.35
2022-11-29T17:50:49.236Z,21.47
2022-11-29T17:54:12.525Z,21.90
2022-11-29T17:57:43.402Z,26.20
2022-11-29T18:01:06.284Z,31.02
2022-11-29T18:05:19.909Z,25.80
2022-11-29T18:08:36.312Z,28.07
2022-11-29T18:11:53.626Z,26.42
2022-11-29T18:15:10.661Z,21.65
2022-11-29T18:18:16.785Z,23.50
2022-11-29T18:21:23.327Z,22.23
2022-11-29T18:24:39.340Z,27.47
2022-11-29T18:28:02.262Z,23.27
2022-11-29T18:31:25.335Z,22.08
2022-11-29T18:34:48.450Z,21.75
2022-11-29T18:38:16.059Z,20.92
2022-11-29T18:41:22.753Z,26.07
2022-11-29T18:44:29.715Z,21.67
2022-11-29T18:47:35.467Z,22.38
2022-11-29T18:50:44.924Z,21.05
2022-11-29T18:54:08.378Z,20.88
2022-11-29T18:57:31.152Z,21.37
2022-11-29T19:00:54.341Z,21.20
2022-11-29T19:04:10.132Z,21.80
2022-11-29T19:07:48.528Z,24.33
2022-11-29T19:10:57.759Z,24.67
2022-11-29T19:14:23.126Z,25.27
2022-11-29T19:17:53.077Z,23.50
2022-11-29T19:21:20.842Z,39.65
2022-11-29T19:24:38.996Z,27.15
2022-11-29T19:27:55.293Z,28.33
2022-11-29T19:31:17.205Z,22.60
2022-11-29T19:34:45.106Z,24.17
2022-11-29T19:38:09.889Z,24.20
2022-11-29T19:41:31.240Z,24.55
2022-11-29T19:45:15.764Z,29.98
2022-11-29T19:48:16.359Z,30.47
2022-11-29T19:51:38.890Z,25.67
2022-11-29T19:54:59.821Z,26.42
2022-11-29T19:58:21.910Z,25.73
2022-11-29T20:01:42.686Z,25.85
2022-11-29T20:04:59.987Z,27.40
2022-11-29T20:08:28.042Z,26.45
2022-11-29T20:11:52.057Z,26.10
2022-11-29T20:15:14.278Z,25.48
2022-11-29T20:18:37.230Z,25.17
2022-11-29T20:22:00.869Z,22.30
2022-11-29T20:25:22.955Z,22.27
2022-11-29T20:28:42.996Z,23.95
2022-11-29T20:32:06.050Z,22.08
2022-11-29T20:35:28.948Z,30.08
2022-11-29T20:39:03.221Z,29.67
2022-11-29T20:42:16.341Z,28.15
2022-11-29T20:45:31.961Z,30.75
2022-11-29T20:48:52.095Z,27.88
2022-11-29T20:52:18.070Z,37.25
2022-11-29T20:55:32.052Z,31.33
2022-11-29T20:58:47.978Z,30.40
2022-11-29T21:02:19.848Z,30.17
2022-11-29T21:05:39.988Z,31.15
2022-11-29T21:08:55.944Z,31.35
2022-11-29T21:12:03.318Z,31.50
2022-11-29T21:15:12.555Z,31.38
2022-11-29T21:18:23.059Z,32.63
2022-11-29T21:21:53.558Z,29.42
2022-11-29T21:25:17.554Z,28.98
2022-11-29T21:28:40.639Z,34.90
2022-11-29T21:31:59.769Z,39.35
2022-11-29T21:35:25.612Z,29.95
2022-11-29T21:38:29.516Z,28.08
2022-11-29T21:41:56.769Z,27.95
2022-11-29T21:45:30.711Z,28.77
2022-11-29T21:48:52.600Z,27.83
2022-11-29T21:52:02.785Z,29.63
2022-11-29T21:55:31.717Z,27.33
2022-11-29T21:58:58.636Z,25.90
2022-11-29T22:02:21.710Z,27.80
2022-11-29T22:05:44.742Z,27.75
2022-11-29T22:09:00.901Z,29.02
2022-11-29T22:12:38.012Z,27.83
2022-11-29T22:15:56.949Z,28.83
2022-11-29T22:19:17.730Z,27.47
2022-11-29T22:22:38.522Z,28.17
2022-11-29T22:25:59.573Z,29.20
2022-11-29T22:29:21.543Z,29.02
2022-11-29T22:32:44.589Z,28.70
2022-11-29T22:36:06.672Z,29.23
2022-11-29T22:39:26.614Z,28.98
2022-11-29T22:42:43.466Z,30.42
2022-11-29T22:46:06.759Z,28.67
2022-11-29T22:49:31.653Z,30.40
2022-11-29T22:52:51.552Z,28.83
2022-11-29T22:56:15.851Z,29.90
2022-11-29T22:59:32.733Z,29.27
2022-11-29T23:02:55.563Z,28.92
2022-11-29T23:06:17.627Z,29.80
2022-11-29T23:09:37.609Z,29.00
2022-11-29T23:12:57.522Z,29.98
2022-11-29T23:16:08.110Z,30.75
2022-11-29T23:19:12.221Z,28.50
2022-11-29T23:22:28.615Z,28.30
2022-11-29T23:25:54.258Z,29.47
2022-11-29T23:29:16.125Z,30.00
2022-11-29T23:32:38.303Z,28.27
2022-11-29T23:36:01.435Z,27.35
2022-11-29T23:39:23.237Z,27.55
2022-11-29T23:42:47.337Z,24.43
2022-11-29T23:45:57.225Z,25.95
2022-11-29T23:49:13.807Z,25.52
2022-11-29T23:52:36.125Z,25.52
2022-11-29T23:55:52.557Z,25.20
2022-11-29T23:59:21.334Z,22.87
